createdAt,value
2023-02-15T00:00:13.968Z,28.38
2023-02-15T00:03:02.043Z,26.73
2023-02-15T00:05:32.753Z,27.23
2023-02-15T00:08:00.362Z,28.20
2023-02-15T00:10:27.479Z,26.23
2023-02-15T00:12:55.642Z,26.58
2023-02-15T00:15:23.770Z,27.30
2023-02-15T00:17:52.701Z,27.27
2023-02-15T00:20:20.160Z,27.60
2023-02-15T00:22:48.013Z,26.85
2023-02-15T00:25:15.934Z,28.15
2023-02-15T00:27:44.916Z,28.77
2023-02-15T00:30:13.697Z,27.15
2023-02-15T00:32:41.587Z,29.95
2023-02-15T00:35:10.844Z,28.15
2023-02-15T00:37:39.168Z,28.40
2023-02-15T00:40:07.354Z,29.02
2023-02-15T00:42:35.416Z,29.42
2023-02-15T00:45:02.730Z,29.25
2023-02-15T00:47:33.352Z,28.25
2023-02-15T00:50:01.293Z,28.10
2023-02-15T00:52:28.502Z,27.73
2023-02-15T00:54:57.296Z,27.98
2023-02-15T00:57:25.362Z,28.90
2023-02-15T00:59:53.232Z,30.38
2023-02-15T01:02:20.668Z,27.65
2023-02-15T01:04:47.785Z,29.10
2023-02-15T01:07:15.784Z,28.85
2023-02-15T01:09:44.180Z,29.33
2023-02-15T01:12:12.718Z,30.30
2023-02-15T01:14:39.914Z,28.80
2023-02-15T01:17:08.488Z,30.58
2023-02-15T01:19:36.541Z,28.67
2023-02-15T01:22:04.721Z,27.40
2023-02-15T01:24:37.836Z,29.48
2023-02-15T01:27:06.349Z,27.52
2023-02-15T01:29:35.455Z,29.25
2023-02-15T01:32:04.147Z,28.80
2023-02-15T01:34:31.718Z,29.90
2023-02-15T01:37:01.557Z,29.70
2023-02-15T01:39:29.442Z,28.90
2023-02-15T01:42:00.036Z,27.38
2023-02-15T01:44:46.165Z,29.83
2023-02-15T01:47:19.613Z,28.13
2023-02-15T01:49:49.993Z,30.10
2023-02-15T01:52:20.516Z,28.88
2023-02-15T01:54:49.280Z,27.95
2023-02-15T01:57:23.213Z,25.73
2023-02-15T01:59:57.674Z,28.77
2023-02-15T02:02:26.678Z,30.27
2023-02-15T02:05:09.578Z,27.88
2023-02-15T02:07:44.988Z,27.17
2023-02-15T02:10:19.766Z,28.30
2023-02-15T02:12:51.177Z,27.58
2023-02-15T02:15:22.250Z,28.17
2023-02-15T02:17:56.570Z,29.80
2023-02-15T02:20:44.638Z,28.08
2023-02-15T02:23:37.027Z,27.98
2023-02-15T02:26:32.868Z,26.65
2023-02-15T02:29:30.514Z,26.20
2023-02-15T02:32:04.514Z,25.80
2023-02-15T02:34:47.996Z,25.80
2023-02-15T02:37:34.740Z,27.67
2023-02-15T02:40:45.812Z,28.88
2023-02-15T02:43:37.943Z,27.08
2023-02-15T02:46:23.376Z,27.60
2023-02-15T02:48:53.229Z,27.48
2023-02-15T02:51:23.186Z,27.20
2023-02-15T02:53:54.711Z,27.48
2023-02-15T02:56:31.275Z,27.98
2023-02-15T02:59:18.971Z,27.15
2023-02-15T03:02:00.547Z,27.35
2023-02-15T03:04:37.445Z,27.70
2023-02-15T03:07:10.074Z,29.60
2023-02-15T03:09:43.819Z,30.38
2023-02-15T03:12:23.810Z,29.27
2023-02-15T03:14:58.151Z,27.88
2023-02-15T03:17:30.993Z,27.27
2023-02-15T03:20:08.435Z,29.48
2023-02-15T03:22:48.454Z,29.05
2023-02-15T03:25:23.579Z,27.40
2023-02-15T03:28:00.685Z,26.17
2023-02-15T03:30:30.848Z,25.75
2023-02-15T03:33:01.840Z,26.75
2023-02-15T03:35:45.168Z,27.95
2023-02-15T03:38:21.903Z,25.88
2023-02-15T03:41:08.749Z,19.55
2023-02-15T03:43:59.726Z,20.48
2023-02-15T03:46:53.698Z,22.58
2023-02-15T03:49:26.071Z,21.83
2023-02-15T03:54:44.389Z,18.58
2023-02-15T03:57:35.453Z,18.52
2023-02-15T04:00:29.029Z,21.13
2023-02-15T04:03:14.991Z,21.08
2023-02-15T04:05:45.712Z,21.08
2023-02-15T04:08:14.009Z,19.17
2023-02-15T04:10:53.889Z,20.50
2023-02-15T04:13:22.727Z,22.10
2023-02-15T04:16:07.313Z,23.40
2023-02-15T04:19:00.512Z,20.98
2023-02-15T04:21:50.440Z,22.50
2023-02-15T04:24:36.542Z,21.33
2023-02-15T04:27:05.480Z,21.85
2023-02-15T04:29:32.859Z,21.30
2023-02-15T04:32:03.229Z,22.50
2023-02-15T04:34:30.289Z,22.10
2023-02-15T04:36:57.487Z,21.77
2023-02-15T04:39:24.489Z,22.80
2023-02-15T04:41:51.838Z,23.52
2023-02-15T04:44:18.880Z,22.88
2023-02-15T04:46:46.165Z,21.55
2023-02-15T04:49:13.144Z,22.42
2023-02-15T04:51:40.494Z,20.00
2023-02-15T04:54:07.769Z,22.02
2023-02-15T04:56:35.964Z,21.95
2023-02-15T04:59:03.047Z,20.40
2023-02-15T05:01:30.761Z,20.20
2023-02-15T05:03:58.042Z,20.20
2023-02-15T05:06:25.307Z,22.88
2023-02-15T05:08:52.277Z,19.17
2023-02-15T05:11:19.935Z,21.10
2023-02-15T05:13:46.880Z,20.40
2023-02-15T05:16:14.215Z,21.17
2023-02-15T05:18:41.288Z,20.08
2023-02-15T05:21:08.623Z,21.00
2023-02-15T05:23:35.854Z,20.80
2023-02-15T05:26:22.203Z,19.98
2023-02-15T05:28:49.175Z,22.23
2023-02-15T05:31:19.837Z,23.25
2023-02-15T05:33:47.493Z,20.92
2023-02-15T05:36:15.017Z,20.08
2023-02-15T05:38:41.976Z,19.38
2023-02-15T05:41:10.732Z,19.10
2023-02-15T05:43:40.198Z,22.63
2023-02-15T05:46:09.704Z,20.35
2023-02-15T05:48:36.902Z,20.45
2023-02-15T05:51:09.779Z,21.48
2023-02-15T05:53:39.002Z,20.60
2023-02-15T05:56:08.771Z,20.65
2023-02-15T05:58:39.087Z,20.35
2023-02-15T06:01:09.511Z,21.08
2023-02-15T06:03:36.594Z,19.83
2023-02-15T06:06:05.844Z,19.85
2023-02-15T06:08:34.279Z,21.17
2023-02-15T06:11:01.547Z,21.13
2023-02-15T06:13:28.575Z,21.48
2023-02-15T06:15:55.865Z,21.02
2023-02-15T06:18:22.852Z,20.95
2023-02-15T06:20:50.611Z,21.02
2023-02-15T06:23:18.595Z,20.17
2023-02-15T06:25:47.092Z,20.65
2023-02-15T06:28:14.615Z,20.88
2023-02-15T06:30:42.071Z,20.88
2023-02-15T06:33:08.981Z,22.17
2023-02-15T06:35:36.453Z,22.88
2023-02-15T06:38:03.445Z,20.20
2023-02-15T06:40:30.687Z,19.25
2023-02-15T06:42:57.562Z,20.08
2023-02-15T06:45:24.799Z,21.60
2023-02-15T06:47:51.737Z,21.45
2023-02-15T06:50:19.195Z,21.23
2023-02-15T06:52:46.337Z,19.95
2023-02-15T06:55:13.538Z,23.10
2023-02-15T06:57:40.503Z,21.30
2023-02-15T07:00:09.199Z,22.33
2023-02-15T07:02:36.234Z,21.40
2023-02-15T07:05:06.110Z,21.38
2023-02-15T07:07:33.524Z,19.15
2023-02-15T07:10:00.700Z,21.00
2023-02-15T07:12:43.549Z,19.73
2023-02-15T07:15:21.680Z,16.85
2023-02-15T07:17:50.146Z,18.63
2023-02-15T07:20:22.984Z,17.65
2023-02-15T07:22:50.733Z,21.48
2023-02-15T07:25:19.322Z,21.30
2023-02-15T07:27:46.404Z,23.92
2023-02-15T07:30:17.556Z,19.70
2023-02-15T07:33:05.498Z,21.92
2023-02-15T07:35:34.517Z,22.98
2023-02-15T07:38:01.957Z,21.33
2023-02-15T07:40:29.326Z,20.85
2023-02-15T07:43:00.027Z,19.83
2023-02-15T07:45:28.061Z,20.83
2023-02-15T07:47:55.209Z,21.05
2023-02-15T07:50:22.620Z,18.98
2023-02-15T07:52:49.866Z,17.38
2023-02-15T07:55:17.245Z,17.67
2023-02-15T07:57:46.090Z,18.92
2023-02-15T08:00:15.087Z,17.60
2023-02-15T08:02:42.602Z,19.48
2023-02-15T08:05:10.004Z,20.63
2023-02-15T08:07:37.216Z,19.48
2023-02-15T08:10:04.969Z,18.00
2023-02-15T08:12:31.946Z,17.83
2023-02-15T08:15:00.089Z,17.90
2023-02-15T08:17:27.327Z,18.73
2023-02-15T08:19:54.592Z,16.75
2023-02-15T08:22:21.500Z,18.17
2023-02-15T08:24:49.267Z,17.55
2023-02-15T08:27:16.141Z,15.05
2023-02-15T08:29:44.052Z,15.18
2023-02-15T08:32:13.192Z,15.50
2023-02-15T08:34:42.609Z,14.88
2023-02-15T08:37:10.455Z,15.55
2023-02-15T08:39:38.116Z,15.57
2023-02-15T08:42:05.460Z,14.63
2023-02-15T08:44:32.799Z,15.20
2023-02-15T08:47:04.627Z,16.02
2023-02-15T08:49:32.521Z,14.52
2023-02-15T08:51:59.477Z,15.50
2023-02-15T08:54:26.741Z,14.68
2023-02-15T08:56:53.809Z,14.00
2023-02-15T08:59:23.359Z,15.65
2023-02-15T09:01:52.603Z,15.13
2023-02-15T09:04:20.922Z,14.15
2023-02-15T09:06:49.966Z,13.23
2023-02-15T09:09:21.094Z,14.70
2023-02-15T09:11:54.549Z,16.20
2023-02-15T09:14:25.449Z,16.08
2023-02-15T09:16:53.506Z,15.95
2023-02-15T09:19:22.788Z,16.35
2023-02-15T09:21:49.819Z,14.85
2023-02-15T09:24:18.164Z,15.20
2023-02-15T09:26:47.923Z,15.35
2023-02-15T09:29:16.438Z,14.20
2023-02-15T09:31:50.022Z,13.70
2023-02-15T09:34:19.923Z,14.60
2023-02-15T09:36:47.906Z,13.77
2023-02-15T09:39:18.168Z,13.82
2023-02-15T09:41:56.845Z,14.68
2023-02-15T09:44:42.281Z,16.70
2023-02-15T09:47:24.490Z,14.82
2023-02-15T09:50:10.447Z,14.57
2023-02-15T09:52:50.647Z,14.57
2023-02-15T09:55:20.618Z,16.00
2023-02-15T09:58:06.557Z,15.38
2023-02-15T10:00:52.808Z,14.90
2023-02-15T10:03:26.090Z,15.98
2023-02-15T10:06:05.352Z,15.25
2023-02-15T10:09:04.575Z,16.15
2023-02-15T10:11:55.889Z,16.58
2023-02-15T10:14:38.961Z,13.43
2023-02-15T10:17:24.195Z,15.50
2023-02-15T10:20:24.802Z,16.08
2023-02-15T10:23:22.456Z,14.35
2023-02-15T10:26:17.030Z,13.02
2023-02-15T10:28:53.032Z,13.95
2023-02-15T10:31:49.019Z,12.88
2023-02-15T10:34:20.033Z,13.85
2023-02-15T10:37:18.347Z,14.38
2023-02-15T10:39:51.284Z,13.77
2023-02-15T10:42:50.676Z,15.77
2023-02-15T10:46:15.331Z,14.45
2023-02-15T10:49:02.766Z,15.65
2023-02-15T10:51:53.009Z,15.40
2023-02-15T10:54:29.336Z,15.18
2023-02-15T10:56:59.426Z,16.33
2023-02-15T10:59:36.941Z,16.52
2023-02-15T11:02:23.207Z,17.17
2023-02-15T11:05:05.313Z,17.88
2023-02-15T11:07:41.561Z,17.80
2023-02-15T11:10:16.042Z,18.27
2023-02-15T11:12:47.037Z,16.50
2023-02-15T11:15:26.744Z,17.13
2023-02-15T11:18:12.838Z,17.15
2023-02-15T11:20:51.089Z,15.57
2023-02-15T11:23:19.420Z,18.40
2023-02-15T11:25:59.398Z,17.27
2023-02-15T11:28:37.863Z,18.70
2023-02-15T11:31:27.480Z,17.25
2023-02-15T11:34:38.531Z,16.85
2023-02-15T11:37:14.301Z,19.50
2023-02-15T11:39:41.961Z,18.85
2023-02-15T11:42:16.865Z,18.88
2023-02-15T11:45:15.688Z,20.02
2023-02-15T11:47:42.562Z,19.60
2023-02-15T11:50:23.045Z,18.55
2023-02-15T11:52:53.105Z,20.83
2023-02-15T11:55:23.736Z,19.02
2023-02-15T11:58:00.108Z,19.33
2023-02-15T12:00:37.182Z,18.38
2023-02-15T12:03:15.969Z,17.90
2023-02-15T12:05:46.416Z,19.02
2023-02-15T12:08:18.782Z,18.15
2023-02-15T12:11:05.274Z,18.17
2023-02-15T12:13:32.497Z,19.70
2023-02-15T12:16:09.281Z,18.30
2023-02-15T12:18:45.293Z,18.65
2023-02-15T12:21:25.382Z,17.75
2023-02-15T12:23:56.723Z,18.17
2023-02-15T12:26:31.816Z,17.83
2023-02-15T12:29:17.544Z,19.35
2023-02-15T12:31:51.222Z,19.90
2023-02-15T12:34:32.598Z,20.38
2023-02-15T12:39:36.969Z,21.45
2023-02-15T12:42:16.587Z,22.45
2023-02-15T12:45:22.196Z,22.27
2023-02-15T12:48:11.163Z,22.02
2023-02-15T12:50:38.238Z,22.70
2023-02-15T12:53:20.076Z,22.63
2023-02-15T12:55:59.324Z,22.30
2023-02-15T12:58:29.178Z,21.95
2023-02-15T13:01:25.568Z,22.30
2023-02-15T13:04:05.324Z,20.75
2023-02-15T13:06:37.650Z,21.85
2023-02-15T13:09:21.217Z,19.67
2023-02-15T13:11:48.636Z,20.00
2023-02-15T13:14:27.570Z,19.38
2023-02-15T13:17:00.089Z,20.35
2023-02-15T13:19:41.181Z,20.27
2023-02-15T13:22:17.641Z,20.33
2023-02-15T13:25:00.506Z,22.33
2023-02-15T13:27:40.215Z,20.90
2023-02-15T13:30:25.974Z,22.08
2023-02-15T13:32:58.556Z,21.20
2023-02-15T13:35:29.439Z,20.17
2023-02-15T13:38:14.478Z,21.00
2023-02-15T13:41:00.073Z,19.10
2023-02-15T13:43:34.710Z,20.52
2023-02-15T13:46:14.134Z,20.90
2023-02-15T13:49:10.431Z,24.92
2023-02-15T13:52:02.485Z,20.63
2023-02-15T13:57:59.748Z,22.08
2023-02-15T14:00:49.030Z,21.85
2023-02-15T14:03:40.976Z,22.48
2023-02-15T14:06:40.285Z,22.38
2023-02-15T14:09:33.299Z,22.38
2023-02-15T14:12:15.700Z,23.35
2023-02-15T14:15:14.070Z,24.45
2023-02-15T14:17:53.181Z,23.75
2023-02-15T14:20:57.667Z,24.77
2023-02-15T14:23:31.915Z,25.73
2023-02-15T14:26:24.075Z,26.35
2023-02-15T14:31:32.176Z,26.23
2023-02-15T14:33:59.253Z,27.25
2023-02-15T14:36:31.317Z,25.63
2023-02-15T14:39:30.314Z,24.27
2023-02-15T14:42:06.338Z,24.83
2023-02-15T14:44:48.789Z,24.52
2023-02-15T14:47:23.365Z,21.58
2023-02-15T14:49:50.265Z,23.65
2023-02-15T14:52:17.569Z,23.17
2023-02-15T14:54:47.594Z,23.30
2023-02-15T14:57:14.845Z,23.98
2023-02-15T14:59:46.447Z,20.90
2023-02-15T15:02:18.195Z,24.08
2023-02-15T15:04:51.336Z,22.23
2023-02-15T15:07:37.215Z,23.23
2023-02-15T15:10:19.194Z,21.48
2023-02-15T15:12:50.156Z,23.77
2023-02-15T15:15:32.194Z,21.60
2023-02-15T15:18:10.711Z,20.50
2023-02-15T15:20:52.728Z,18.50
2023-02-15T15:23:20.025Z,19.42
2023-02-15T15:25:52.868Z,19.65
2023-02-15T15:28:35.148Z,20.40
2023-02-15T15:31:17.440Z,19.38
2023-02-15T15:34:22.576Z,21.35
2023-02-15T15:37:07.988Z,19.58
2023-02-15T15:39:44.309Z,21.00
2023-02-15T15:42:45.561Z,20.17
2023-02-15T15:45:38.669Z,22.17
2023-02-15T15:48:07.573Z,20.75
2023-02-15T15:50:35.213Z,22.65
2023-02-15T15:53:04.285Z,20.77
2023-02-15T15:55:34.680Z,25.00
2023-02-15T15:58:08.296Z,18.40
2023-02-15T16:00:39.488Z,19.90
2023-02-15T16:03:06.783Z,21.00
2023-02-15T16:05:39.416Z,18.98
2023-02-15T16:08:06.949Z,20.90
2023-02-15T16:10:37.102Z,20.38
2023-02-15T16:13:05.792Z,19.95
2023-02-15T16:15:50.831Z,20.20
2023-02-15T16:18:19.840Z,20.17
2023-02-15T16:20:54.246Z,20.17
2023-02-15T16:23:39.250Z,20.02
2023-02-15T16:26:18.758Z,20.95
2023-02-15T16:28:53.929Z,20.98
2023-02-15T16:31:25.962Z,21.15
2023-02-15T16:33:56.141Z,19.88
2023-02-15T16:36:26.174Z,21.70
2023-02-15T16:38:53.532Z,20.33
2023-02-15T16:41:28.206Z,20.88
2023-02-15T16:43:58.081Z,20.58
2023-02-15T16:46:32.594Z,21.48
2023-02-15T16:49:03.219Z,22.88
2023-02-15T16:51:33.682Z,21.55
2023-02-15T16:54:08.963Z,24.27
2023-02-15T16:56:37.498Z,24.85
2023-02-15T16:59:04.562Z,22.42
2023-02-15T17:01:33.804Z,23.52
2023-02-15T17:04:32.592Z,24.38
2023-02-15T17:07:17.411Z,23.92
2023-02-15T17:09:56.410Z,22.98
2023-02-15T17:12:56.171Z,25.33
2023-02-15T17:15:38.051Z,23.45
2023-02-15T17:18:21.620Z,24.58
2023-02-15T17:20:50.964Z,21.85
2023-02-15T17:23:49.264Z,23.65
2023-02-15T17:26:21.477Z,22.52
2023-02-15T17:28:59.026Z,25.40
2023-02-15T17:31:30.824Z,25.33
2023-02-15T17:33:59.396Z,24.70
2023-02-15T17:36:30.384Z,23.80
2023-02-15T17:38:57.797Z,23.13
2023-02-15T17:41:25.248Z,25.92
2023-02-15T17:43:52.755Z,26.25
2023-02-15T17:46:22.942Z,25.23
2023-02-15T17:48:52.888Z,24.90
2023-02-15T17:51:20.851Z,22.30
2023-02-15T17:54:08.728Z,24.10
2023-02-15T17:56:37.962Z,21.48
2023-02-15T17:59:10.335Z,26.08
2023-02-15T18:02:02.518Z,23.30
2023-02-15T18:04:49.825Z,26.30
2023-02-15T18:07:37.485Z,25.83
2023-02-15T18:10:36.187Z,25.70
2023-02-15T18:13:03.856Z,24.30
2023-02-15T18:15:31.208Z,24.27
2023-02-15T18:17:58.303Z,26.60
2023-02-15T18:20:36.815Z,25.27
2023-02-15T18:23:03.846Z,26.77
2023-02-15T18:25:31.434Z,26.30
2023-02-15T18:27:58.719Z,26.08
2023-02-15T18:30:27.009Z,26.67
2023-02-15T18:32:59.250Z,26.50
2023-02-15T18:35:30.243Z,26.65
2023-02-15T18:37:58.309Z,26.33
2023-02-15T18:40:27.573Z,27.17
2023-02-15T18:42:56.971Z,26.88
2023-02-15T18:45:32.884Z,29.02
2023-02-15T18:48:00.095Z,25.40
2023-02-15T18:50:31.036Z,26.90
2023-02-15T18:52:58.023Z,28.30
2023-02-15T18:55:29.086Z,27.27
2023-02-15T18:57:57.351Z,28.35
2023-02-15T19:00:30.670Z,25.63
2023-02-15T19:02:58.165Z,29.52
2023-02-15T19:05:28.173Z,28.00
2023-02-15T19:07:57.338Z,27.58
2023-02-15T19:10:26.440Z,27.75
2023-02-15T19:12:54.544Z,26.15
2023-02-15T19:15:24.804Z,27.98
2023-02-15T19:17:52.780Z,27.38
2023-02-15T19:20:26.459Z,28.70
2023-02-15T19:22:55.691Z,27.95
2023-02-15T19:25:28.585Z,29.10
2023-02-15T19:27:56.445Z,29.30
2023-02-15T19:30:29.966Z,28.95
2023-02-15T19:32:58.670Z,27.10
2023-02-15T19:35:35.632Z,27.52
2023-02-15T19:38:07.983Z,27.73
2023-02-15T19:40:36.580Z,28.38
2023-02-15T19:43:04.512Z,25.85
2023-02-15T19:45:32.733Z,27.77
2023-02-15T19:48:02.530Z,28.60
2023-02-15T19:50:31.561Z,29.58
2023-02-15T19:52:59.271Z,29.67
2023-02-15T19:55:32.762Z,28.58
2023-02-15T19:58:01.999Z,27.52
2023-02-15T20:00:32.333Z,28.77
2023-02-15T20:03:00.362Z,27.00
2023-02-15T20:05:30.358Z,28.90
2023-02-15T20:07:58.058Z,28.85
2023-02-15T20:10:30.909Z,28.88
2023-02-15T20:12:58.079Z,27.52
2023-02-15T20:15:34.618Z,29.30
2023-02-15T20:18:04.138Z,29.25
2023-02-15T20:20:39.138Z,30.98
2023-02-15T20:23:07.148Z,30.23
2023-02-15T20:25:34.557Z,29.35
2023-02-15T20:28:01.826Z,30.15
2023-02-15T20:30:31.989Z,31.60
2023-02-15T20:32:59.797Z,31.27
2023-02-15T20:35:29.258Z,31.80
2023-02-15T20:38:03.117Z,30.58
2023-02-15T20:40:33.478Z,30.35
2023-02-15T20:43:01.220Z,32.10
2023-02-15T20:45:31.566Z,31.30
2023-02-15T20:48:01.942Z,33.65
2023-02-15T20:50:32.222Z,32.63
2023-02-15T20:53:02.641Z,31.88
2023-02-15T20:55:31.690Z,30.50
2023-02-15T20:57:59.678Z,30.35
2023-02-15T21:00:29.375Z,28.88
2023-02-15T21:03:01.357Z,31.08
2023-02-15T21:05:35.618Z,32.58
2023-02-15T21:08:02.637Z,32.65
2023-02-15T21:10:34.314Z,31.85
2023-02-15T21:13:01.579Z,32.53
2023-02-15T21:15:35.591Z,31.50
2023-02-15T21:18:05.660Z,32.85
2023-02-15T21:20:35.155Z,30.92
2023-02-15T21:23:04.778Z,31.90
2023-02-15T21:25:36.617Z,31.73
2023-02-15T21:28:05.534Z,31.48
2023-02-15T21:30:32.805Z,33.55
2023-02-15T21:32:59.849Z,34.22
2023-02-15T21:35:28.696Z,31.40
2023-02-15T21:37:56.483Z,33.78
2023-02-15T21:40:27.701Z,32.35
2023-02-15T21:43:13.584Z,33.05
2023-02-15T21:45:59.386Z,32.80
2023-02-15T21:48:26.270Z,31.42
2023-02-15T21:51:13.142Z,32.95
2023-02-15T21:53:43.150Z,34.03
2023-02-15T21:56:16.703Z,34.00
2023-02-15T21:58:43.635Z,34.25
2023-02-15T22:01:21.940Z,32.00
2023-02-15T22:03:49.750Z,33.97
2023-02-15T22:06:17.257Z,34.63
2023-02-15T22:08:44.747Z,38.38
2023-02-15T22:11:14.195Z,37.97
2023-02-15T22:13:42.803Z,38.35
2023-02-15T22:16:16.699Z,38.42
2023-02-15T22:18:43.666Z,33.75
2023-02-15T22:21:11.733Z,36.70
2023-02-15T22:23:39.119Z,38.45
2023-02-15T22:26:28.286Z,37.63
2023-02-15T22:28:56.801Z,39.05
2023-02-15T22:31:24.160Z,37.83
2023-02-15T22:33:51.338Z,38.45
2023-02-15T22:36:30.233Z,39.88
2023-02-15T22:38:57.916Z,40.70
2023-02-15T22:41:29.120Z,38.47
2023-02-15T22:43:56.905Z,40.03
2023-02-15T22:46:25.803Z,41.35
2023-02-15T22:48:53.019Z,40.60
2023-02-15T22:51:23.408Z,41.67
2023-02-15T22:53:54.089Z,43.83
2023-02-15T22:56:52.396Z,40.40
2023-02-15T22:59:23.882Z,42.85
2023-02-15T23:01:51.232Z,42.65
2023-02-15T23:04:21.416Z,45.75
2023-02-15T23:06:49.871Z,45.57
2023-02-15T23:09:17.199Z,42.35
2023-02-15T23:11:45.959Z,46.83
2023-02-15T23:14:25.916Z,45.60
2023-02-15T23:16:54.057Z,42.45
2023-02-15T23:19:21.423Z,43.70
2023-02-15T23:21:48.872Z,48.17
2023-02-15T23:24:22.137Z,46.42
2023-02-15T23:31:27.670Z,41.50
2023-02-15T23:43:06.125Z,45.35
2023-02-15T23:45:38.114Z,46.97
2023-02-15T23:48:35.698Z,45.78
2023-02-15T23:51:03.736Z,45.80
2023-02-15T23:53:32.041Z,44.42
2023-02-15T23:55:59.637Z,45.35
2023-02-15T23:58:38.885Z,44.25
